createdAt,value
2023-05-21T00:00:25.871Z,100163.06
2023-05-21T00:03:30.775Z,100159.53
2023-05-21T00:06:36.637Z,100159.22
2023-05-21T00:09:39.619Z,100165.41
2023-05-21T00:12:42.153Z,100171.19
2023-05-21T00:15:45.055Z,100164.94
2023-05-21T00:18:49.736Z,100165.44
2023-05-21T00:21:53.051Z,100163.25
2023-05-21T00:24:55.688Z,100160.91
2023-05-21T00:31:01.413Z,100168.84
2023-05-21T00:34:04.252Z,100169.09
2023-05-21T00:37:06.860Z,100166.28
2023-05-21T00:40:11.650Z,100162.75
2023-05-21T00:43:15.214Z,100164.88
2023-05-21T00:46:20.920Z,100153.69
2023-05-21T00:49:24.568Z,100161.28
2023-05-21T00:52:27.587Z,100167.25
2023-05-21T00:55:30.382Z,100156.25
2023-05-21T00:58:34.242Z,100149.56
2023-05-21T01:01:37.338Z,100151.72
2023-05-21T01:04:40.460Z,100144.88
2023-05-21T01:07:43.419Z,100155.19
2023-05-21T01:10:46.264Z,100155.09
2023-05-21T01:13:50.134Z,100145.09
2023-05-21T01:16:53.743Z,100145.87
2023-05-21T01:19:58.372Z,100147.66
2023-05-21T01:23:02.775Z,100141.47
2023-05-21T01:26:07.284Z,100147.47
2023-05-21T01:29:14.209Z,100142.81
2023-05-21T01:32:38.797Z,100149.81
2023-05-21T01:35:50.571Z,100149.06
2023-05-21T01:39:06.711Z,100144.88
2023-05-21T01:42:11.048Z,100148.28
2023-05-21T01:45:15.890Z,100145.06
2023-05-21T01:48:19.720Z,100140.44
2023-05-21T01:51:23.591Z,100139.59
2023-05-21T01:54:26.590Z,100142.13
2023-05-21T01:57:29.224Z,100141.97
2023-05-21T02:00:32.724Z,100147.59
2023-05-21T02:03:36.222Z,100141.44
2023-05-21T02:06:39.620Z,100144.09
2023-05-21T02:09:42.678Z,100140.75
2023-05-21T02:12:45.216Z,100144.16
2023-05-21T02:15:48.267Z,100132.09
2023-05-21T02:18:57.370Z,100133.50
2023-05-21T02:22:00.394Z,100139.88
2023-05-21T02:25:03.434Z,100141.56
2023-05-21T02:28:06.779Z,100140.56
2023-05-21T02:31:09.269Z,100142.53
2023-05-21T02:34:12.378Z,100144.12
2023-05-21T02:37:14.954Z,100145.50
2023-05-21T02:40:17.953Z,100135.59
2023-05-21T02:43:20.583Z,100139.78
2023-05-21T02:46:23.643Z,100135.16
2023-05-21T02:49:27.792Z,100139.50
2023-05-21T02:52:31.010Z,100141.16
2023-05-21T02:55:33.742Z,100141.00
2023-05-21T02:58:36.838Z,100145.06
2023-05-21T03:01:41.268Z,100140.28
2023-05-21T03:04:47.039Z,100135.31
2023-05-21T03:07:49.529Z,100149.03
2023-05-21T03:10:52.491Z,100137.41
2023-05-21T03:13:55.104Z,100130.12
2023-05-21T03:16:58.430Z,100131.94
2023-05-21T03:20:01.133Z,100125.31
2023-05-21T03:23:04.444Z,100123.88
2023-05-21T03:26:08.045Z,100128.69
2023-05-21T03:29:11.140Z,100123.72
2023-05-21T03:32:14.964Z,100123.66
2023-05-21T03:35:18.311Z,100130.62
2023-05-21T03:38:21.063Z,100134.38
2023-05-21T03:41:23.989Z,100132.16
2023-05-21T03:44:26.929Z,100138.91
2023-05-21T03:47:30.690Z,100140.81
2023-05-21T03:50:33.724Z,100140.91
2023-05-21T03:53:37.000Z,100143.38
2023-05-21T03:56:39.787Z,100150.50
2023-05-21T03:59:42.582Z,100157.41
2023-05-21T04:02:45.158Z,100152.63
2023-05-21T04:05:49.524Z,100167.59
2023-05-21T04:08:52.407Z,100161.78
2023-05-21T04:11:55.303Z,100165.19
2023-05-21T04:14:57.739Z,100163.03
2023-05-21T04:18:00.919Z,100168.38
2023-05-21T04:21:03.672Z,100160.69
2023-05-21T04:24:06.636Z,100167.03
2023-05-21T04:27:10.072Z,100173.53
2023-05-21T04:30:13.720Z,100174.69
2023-05-21T04:33:20.307Z,100171.31
2023-05-21T04:36:24.360Z,100159.75
2023-05-21T04:39:26.845Z,100169.63
2023-05-21T04:42:30.460Z,100167.53
2023-05-21T04:45:33.866Z,100159.03
2023-05-21T04:48:36.967Z,100162.94
2023-05-21T04:51:40.005Z,100155.87
2023-05-21T04:54:43.074Z,100153.25
2023-05-21T04:57:45.649Z,100156.91
2023-05-21T05:00:50.925Z,100150.22
2023-05-21T05:03:53.792Z,100155.91
2023-05-21T05:06:57.561Z,100162.47
2023-05-21T05:10:00.429Z,100160.53
2023-05-21T05:13:03.699Z,100162.47
2023-05-21T05:16:07.234Z,100162.19
2023-05-21T05:19:10.490Z,100160.09
2023-05-21T05:22:13.592Z,100159.16
2023-05-21T05:25:17.233Z,100171.94
2023-05-21T05:28:20.611Z,100168.03
2023-05-21T05:31:23.744Z,100158.75
2023-05-21T05:34:28.022Z,100161.16
2023-05-21T05:37:31.055Z,100170.56
2023-05-21T05:40:34.103Z,100167.81
2023-05-21T05:43:37.374Z,100156.72
2023-05-21T05:46:40.031Z,100171.59
2023-05-21T05:49:43.822Z,100164.12
2023-05-21T05:52:46.426Z,100167.22
2023-05-21T05:55:49.472Z,100174.72
2023-05-21T05:58:52.180Z,100166.97
2023-05-21T06:01:55.190Z,100159.06
2023-05-21T06:04:58.943Z,100151.66
2023-05-21T06:08:01.592Z,100161.00
2023-05-21T06:11:04.548Z,100157.97
2023-05-21T06:14:07.147Z,100160.62
2023-05-21T06:17:10.061Z,100155.56
2023-05-21T06:20:12.642Z,100148.56
2023-05-21T06:23:15.709Z,100157.16
2023-05-21T06:26:19.813Z,100134.97
2023-05-21T06:29:23.070Z,100145.06
2023-05-21T06:32:26.097Z,100148.66
2023-05-21T06:35:29.022Z,100138.16
2023-05-21T06:38:31.686Z,100152.41
2023-05-21T06:41:35.062Z,100141.13
2023-05-21T06:44:37.790Z,100135.31
2023-05-21T06:47:41.263Z,100137.16
2023-05-21T06:50:44.066Z,100144.00
2023-05-21T06:53:48.084Z,100135.72
2023-05-21T06:56:51.147Z,100136.31
2023-05-21T06:59:54.188Z,100122.22
2023-05-21T07:02:57.169Z,100134.16
2023-05-21T07:06:01.152Z,100137.28
2023-05-21T07:09:05.547Z,100144.22
2023-05-21T07:12:08.407Z,100162.72
2023-05-21T07:15:11.230Z,100131.56
2023-05-21T07:18:16.561Z,100123.25
2023-05-21T07:21:20.105Z,100130.06
2023-05-21T07:24:23.700Z,100137.91
2023-05-21T07:27:26.473Z,100129.25
2023-05-21T07:30:30.022Z,100130.72
2023-05-21T07:33:33.527Z,100124.31
2023-05-21T07:36:37.088Z,100133.84
2023-05-21T07:39:40.232Z,100143.97
2023-05-21T07:42:44.891Z,100131.31
2023-05-21T07:45:47.909Z,100119.09
2023-05-21T07:48:53.084Z,100123.84
2023-05-21T07:51:55.746Z,100117.81
2023-05-21T07:54:58.640Z,100114.59
2023-05-21T07:58:01.660Z,100111.22
2023-05-21T08:01:06.405Z,100107.31
2023-05-21T08:04:09.740Z,100115.13
2023-05-21T08:07:13.699Z,100125.78
2023-05-21T08:10:19.157Z,100107.06
2023-05-21T08:13:22.346Z,100104.00
2023-05-21T08:16:25.611Z,100115.75
2023-05-21T08:19:28.201Z,100126.16
2023-05-21T08:22:31.214Z,100122.41
2023-05-21T08:25:33.784Z,100117.50
2023-05-21T08:28:39.005Z,100108.50
2023-05-21T08:31:41.942Z,100123.09
2023-05-21T08:34:44.876Z,100128.22
2023-05-21T08:37:47.789Z,100114.38
2023-05-21T08:40:52.391Z,100135.37
2023-05-21T08:44:01.380Z,100117.97
2023-05-21T08:47:07.885Z,100120.91
2023-05-21T08:50:13.894Z,100124.09
2023-05-21T08:53:27.174Z,100123.94
2023-05-21T08:56:32.084Z,100113.41
2023-05-21T08:59:36.974Z,100106.16
2023-05-21T09:02:44.402Z,100112.47
2023-05-21T09:05:47.411Z,100107.06
2023-05-21T09:08:59.830Z,100109.78
2023-05-21T09:12:03.733Z,100109.34
2023-05-21T09:15:08.084Z,100098.34
2023-05-21T09:18:12.673Z,100102.91
2023-05-21T09:21:27.306Z,100101.56
2023-05-21T09:24:36.059Z,100102.56
2023-05-21T09:27:40.043Z,100119.66
2023-05-21T09:30:48.010Z,100111.19
2023-05-21T09:33:51.318Z,100099.44
2023-05-21T09:36:57.863Z,100113.44
2023-05-21T09:40:01.413Z,100111.34
2023-05-21T09:43:05.180Z,100103.41
2023-05-21T09:46:07.903Z,100104.03
2023-05-21T09:49:28.059Z,100115.31
2023-05-21T09:52:30.948Z,100106.94
2023-05-21T09:55:36.446Z,100099.81
2023-05-21T09:58:39.576Z,100105.37
2023-05-21T10:01:44.148Z,100096.44
2023-05-21T10:04:51.998Z,100114.16
2023-05-21T10:08:03.499Z,100089.53
2023-05-21T10:11:09.520Z,100094.94
2023-05-21T10:14:19.978Z,100085.75
2023-05-21T10:17:24.543Z,100074.53
2023-05-21T10:20:27.601Z,100082.94
2023-05-21T10:23:31.080Z,100072.22
2023-05-21T10:26:34.429Z,100069.56
2023-05-21T10:29:38.377Z,100071.37
2023-05-21T10:32:44.229Z,100072.47
2023-05-21T10:35:48.419Z,100094.56
2023-05-21T10:38:51.451Z,100076.25
2023-05-21T10:42:23.744Z,100065.31
2023-05-21T10:45:43.098Z,100070.69
2023-05-21T10:49:05.088Z,100073.25
2023-05-21T10:52:32.116Z,100069.72
2023-05-21T10:55:47.074Z,100071.06
2023-05-21T10:59:28.420Z,100068.66
2023-05-21T11:02:31.778Z,100073.88
2023-05-21T11:05:55.963Z,100058.38
2023-05-21T11:09:15.513Z,100055.81
2023-05-21T11:12:19.905Z,100058.50
2023-05-21T11:15:22.731Z,100052.34
2023-05-21T11:18:37.844Z,100065.91
2023-05-21T11:21:40.811Z,100058.34
2023-05-21T11:24:43.927Z,100053.44
2023-05-21T11:27:47.845Z,100053.41
2023-05-21T11:31:22.540Z,100049.41
2023-05-21T11:34:28.828Z,100041.19
2023-05-21T11:37:34.540Z,100038.75
2023-05-21T11:40:37.958Z,100049.03
2023-05-21T11:43:40.987Z,100047.97
2023-05-21T11:46:43.941Z,100039.88
2023-05-21T11:49:47.110Z,100045.28
2023-05-21T11:52:51.103Z,100059.41
2023-05-21T11:55:57.583Z,100038.47
2023-05-21T11:59:02.849Z,100025.06
2023-05-21T12:02:05.605Z,100026.25
2023-05-21T12:05:10.168Z,100030.94
2023-05-21T12:08:12.919Z,100021.16
2023-05-21T12:11:15.797Z,100017.78
2023-05-21T12:14:18.339Z,100018.53
2023-05-21T12:17:26.581Z,100020.47
2023-05-21T12:20:29.240Z,100022.47
2023-05-21T12:23:32.071Z,100006.56
2023-05-21T12:26:38.009Z,100006.22
2023-05-21T12:29:45.584Z,100014.13
2023-05-21T12:32:49.028Z,100000.78
2023-05-21T12:35:52.636Z,99996.44
2023-05-21T12:38:56.437Z,100004.28
2023-05-21T12:41:59.226Z,100001.56
2023-05-21T12:45:07.001Z,100002.06
2023-05-21T12:48:10.018Z,99989.62
2023-05-21T12:51:12.757Z,100009.41
2023-05-21T12:54:15.555Z,99981.94
2023-05-21T12:57:23.533Z,99986.69
2023-05-21T13:00:26.493Z,99981.78
2023-05-21T13:03:29.055Z,99971.84
2023-05-21T13:06:42.034Z,99970.94
2023-05-21T13:09:45.052Z,99965.53
2023-05-21T13:12:47.974Z,99975.84
2023-05-21T13:15:50.955Z,99963.66
2023-05-21T13:18:53.897Z,99965.34
2023-05-21T13:21:56.613Z,99948.16
2023-05-21T13:24:59.474Z,99949.06
2023-05-21T13:28:04.527Z,99945.16
2023-05-21T13:31:07.337Z,99959.97
2023-05-21T13:34:13.552Z,99949.34
2023-05-21T13:37:16.308Z,99939.53
2023-05-21T13:40:19.079Z,99932.59
2023-05-21T13:43:21.935Z,99932.53
2023-05-21T13:46:24.526Z,99934.81
2023-05-21T13:49:27.708Z,99938.78
2023-05-21T13:52:30.638Z,99935.78
2023-05-21T13:55:33.690Z,99923.16
2023-05-21T13:58:36.258Z,99926.88
2023-05-21T14:01:45.417Z,99923.22
2023-05-21T14:04:51.512Z,99929.00
2023-05-21T14:07:54.051Z,99928.53
2023-05-21T14:10:57.616Z,99930.88
2023-05-21T14:14:00.858Z,99921.03
2023-05-21T14:17:03.803Z,99918.34
2023-05-21T14:20:07.414Z,99921.09
2023-05-21T14:23:11.581Z,99921.22
2023-05-21T14:26:18.238Z,99919.63
2023-05-21T14:29:21.197Z,99915.97
2023-05-21T14:32:23.886Z,99911.03
2023-05-21T14:35:26.939Z,99909.50
2023-05-21T14:38:29.435Z,99908.19
2023-05-21T14:41:32.317Z,99905.53
2023-05-21T14:44:34.801Z,99903.81
2023-05-21T14:47:37.631Z,99921.09
2023-05-21T14:50:40.935Z,99918.06
2023-05-21T14:53:44.009Z,99894.75
2023-05-21T14:56:46.532Z,99913.06
2023-05-21T14:59:49.428Z,99899.63
2023-05-21T15:02:53.033Z,99896.06
2023-05-21T15:05:58.603Z,99908.94
2023-05-21T15:09:01.135Z,99893.78
2023-05-21T15:12:04.381Z,99900.75
2023-05-21T15:15:08.356Z,99892.66
2023-05-21T15:18:11.708Z,99886.78
2023-05-21T15:21:14.383Z,99888.69
2023-05-21T15:24:17.733Z,99891.44
2023-05-21T15:27:20.273Z,99886.47
2023-05-21T15:30:23.068Z,99884.75
2023-05-21T15:33:25.611Z,99888.63
2023-05-21T15:36:28.686Z,99893.87
2023-05-21T15:39:32.425Z,99884.94
2023-05-21T15:42:35.577Z,99885.56
2023-05-21T15:45:38.784Z,99891.19
2023-05-21T15:48:42.011Z,99883.69
2023-05-21T15:51:44.568Z,99887.75
2023-05-21T15:54:47.364Z,99898.34
2023-05-21T15:57:49.822Z,99898.41
2023-05-21T16:00:52.735Z,99893.47
2023-05-21T16:03:56.024Z,99889.28
2023-05-21T16:06:58.582Z,99902.13
2023-05-21T16:10:01.352Z,99899.31
2023-05-21T16:13:03.984Z,99901.75
2023-05-21T16:16:07.139Z,99904.72
2023-05-21T16:19:09.675Z,99897.91
2023-05-21T16:22:14.604Z,99901.22
2023-05-21T16:25:18.070Z,99896.66
2023-05-21T16:28:21.095Z,99900.63
2023-05-21T16:31:26.246Z,99901.50
2023-05-21T16:34:34.387Z,99899.78
2023-05-21T16:37:36.915Z,99906.44
2023-05-21T16:40:40.449Z,99919.34
2023-05-21T16:43:43.437Z,99904.41
2023-05-21T16:46:46.244Z,99902.97
2023-05-21T16:49:48.711Z,99902.34
2023-05-21T16:52:51.493Z,99901.53
2023-05-21T16:55:53.993Z,99907.53
2023-05-21T16:58:58.215Z,99901.75
2023-05-21T17:02:00.969Z,99915.69
2023-05-21T17:05:04.919Z,99910.31
2023-05-21T17:08:08.637Z,99912.63
2023-05-21T17:11:11.565Z,99918.47
2023-05-21T17:14:32.572Z,99917.87
2023-05-21T17:17:36.929Z,99916.66
2023-05-21T17:20:43.727Z,99918.53
2023-05-21T17:23:46.724Z,99922.50
2023-05-21T17:26:49.413Z,99916.72
2023-05-21T17:29:52.299Z,99926.25
2023-05-21T17:32:55.051Z,99918.78
2023-05-21T17:35:57.901Z,99918.16
2023-05-21T17:39:00.539Z,99919.03
2023-05-21T17:42:03.669Z,99920.47
2023-05-21T17:45:06.515Z,99921.34
2023-05-21T17:48:09.447Z,99920.50
2023-05-21T17:51:13.016Z,99920.72
2023-05-21T17:54:16.019Z,99917.22
2023-05-21T17:57:20.266Z,99908.87
2023-05-21T18:00:23.155Z,99911.78
2023-05-21T18:03:27.005Z,99916.31
2023-05-21T18:06:31.152Z,99907.22
2023-05-21T18:09:34.432Z,99909.87
2023-05-21T18:12:36.911Z,99913.81
2023-05-21T18:15:39.869Z,99907.16
2023-05-21T18:18:42.937Z,99908.81
2023-05-21T18:21:48.297Z,99908.94
2023-05-21T18:24:51.312Z,99907.47
2023-05-21T18:27:54.077Z,99905.41
2023-05-21T18:31:00.752Z,99908.47
2023-05-21T18:34:03.635Z,99904.75
2023-05-21T18:37:06.777Z,99907.41
2023-05-21T18:40:10.705Z,99911.09
2023-05-21T18:43:14.644Z,99909.34
2023-05-21T18:46:17.744Z,99910.94
2023-05-21T18:49:21.325Z,99910.31
2023-05-21T18:52:24.232Z,99912.13
2023-05-21T18:55:26.755Z,99913.81
2023-05-21T18:58:30.354Z,99916.81
2023-05-21T19:01:34.100Z,99919.03
2023-05-21T19:04:37.133Z,99912.81
2023-05-21T19:07:41.241Z,99923.13
2023-05-21T19:10:44.117Z,99929.28
2023-05-21T19:13:47.975Z,99927.59
2023-05-21T19:16:52.152Z,99922.78
2023-05-21T19:19:57.695Z,99925.00
2023-05-21T19:23:01.379Z,99935.69
2023-05-21T19:26:04.020Z,99935.75
2023-05-21T19:29:06.881Z,99937.50
2023-05-21T19:32:09.696Z,99939.84
2023-05-21T19:35:12.687Z,99943.56
2023-05-21T19:38:15.146Z,99942.56
2023-05-21T19:41:18.759Z,99947.66
2023-05-21T19:44:21.283Z,99941.38
2023-05-21T19:47:24.291Z,99952.06
2023-05-21T19:50:28.653Z,99949.50
2023-05-21T19:53:31.625Z,99949.59
2023-05-21T19:56:34.100Z,99946.31
2023-05-21T19:59:39.226Z,99947.25
2023-05-21T20:02:41.790Z,99945.13
2023-05-21T20:05:44.666Z,99945.22
2023-05-21T20:08:47.669Z,99948.69
2023-05-21T20:11:50.545Z,99943.81
2023-05-21T20:14:54.241Z,99949.09
2023-05-21T20:17:59.361Z,99947.31
2023-05-21T20:21:02.645Z,99943.94
2023-05-21T20:24:08.718Z,99955.47
2023-05-21T20:27:11.746Z,99940.50
2023-05-21T20:30:14.780Z,99945.22
2023-05-21T20:33:17.279Z,99949.81
2023-05-21T20:36:21.356Z,99943.16
2023-05-21T20:39:27.339Z,99945.19
2023-05-21T20:42:34.684Z,99940.75
2023-05-21T20:45:39.391Z,99938.91
2023-05-21T20:48:43.529Z,99940.00
2023-05-21T20:51:46.639Z,99943.72
2023-05-21T20:54:49.642Z,99944.06
2023-05-21T20:57:52.546Z,99949.97
2023-05-21T21:00:55.420Z,99940.09
2023-05-21T21:03:58.039Z,99947.69
2023-05-21T21:07:01.892Z,99944.09
2023-05-21T21:10:05.172Z,99945.88
2023-05-21T21:13:08.376Z,99947.06
2023-05-21T21:16:11.019Z,99944.72
2023-05-21T21:19:13.994Z,99944.09
2023-05-21T21:22:18.193Z,99942.44
2023-05-21T21:25:21.529Z,99946.56
2023-05-21T21:28:24.189Z,99945.00
2023-05-21T21:31:27.170Z,99940.66
2023-05-21T21:34:29.721Z,99945.13
2023-05-21T21:37:32.417Z,99948.22
2023-05-21T21:40:34.876Z,99951.34
2023-05-21T21:43:37.845Z,99961.53
2023-05-21T21:46:40.337Z,99959.88
2023-05-21T21:49:43.524Z,99962.94
2023-05-21T21:52:46.175Z,99967.69
2023-05-21T21:55:53.122Z,99970.94
2023-05-21T21:58:55.934Z,99968.72
2023-05-21T22:01:58.933Z,99965.78
2023-05-21T22:05:01.899Z,99964.94
2023-05-21T22:08:05.011Z,99962.13
2023-05-21T22:11:07.819Z,99967.03
2023-05-21T22:14:11.585Z,99976.47
2023-05-21T22:17:17.872Z,99976.63
2023-05-21T22:20:22.071Z,99998.12
2023-05-21T22:23:24.900Z,99990.09
2023-05-21T22:26:27.311Z,99979.94
2023-05-21T22:29:30.035Z,99993.97
2023-05-21T22:32:32.597Z,99972.88
2023-05-21T22:35:35.448Z,99986.66
2023-05-21T22:38:38.012Z,99975.44
2023-05-21T22:41:40.762Z,99968.44
2023-05-21T22:44:43.386Z,99976.38
2023-05-21T22:47:46.299Z,99973.50
2023-05-21T22:50:50.409Z,99968.50
2023-05-21T22:53:53.246Z,99971.34
2023-05-21T22:56:55.765Z,99979.38
2023-05-21T22:59:58.788Z,99981.94
2023-05-21T23:03:01.456Z,99976.44
2023-05-21T23:06:04.285Z,99977.13
2023-05-21T23:09:08.662Z,99984.31
2023-05-21T23:12:12.423Z,99977.81
2023-05-21T23:15:14.924Z,99966.31
2023-05-21T23:18:17.752Z,99974.47
2023-05-21T23:21:21.856Z,99981.69
2023-05-21T23:24:24.716Z,99974.16
2023-05-21T23:27:27.200Z,99973.81
2023-05-21T23:30:29.955Z,99972.34
2023-05-21T23:33:32.763Z,99971.31
2023-05-21T23:36:35.529Z,99965.47
2023-05-21T23:39:38.122Z,99955.78
2023-05-21T23:42:41.316Z,99962.47
2023-05-21T23:45:44.529Z,99958.16
2023-05-21T23:48:47.344Z,99968.16
2023-05-21T23:51:50.864Z,99959.34
2023-05-21T23:54:54.183Z,99951.97
2023-05-21T23:57:56.733Z,99956.63
